Time;durP1;ratioP1;P1;durP2;ratioP2;P2;SDS_P1;SDS_P2;PMS_P1;PMS_P2;Temp;Humidity;BMP_temperature;BMP_pressure;BME280_temperature;BME280_humidity;BME280_pressure;Samples;Min_cycle;Max_cycle;Signal;HPM_P1;HPM_P2
2023/10/30 00:01:58;;;;;;;;;;;15.90;90.60;;;;;;4155049;28;19932;-53
2023/10/30 00:04:38;;;;;;;;;;;15.90;90.50;;;;;;4156269;28;20360;-53
2023/10/30 00:07:19;;;;;;;;;;;15.90;90.60;;;;;;4155843;28;19932;-52
2023/10/30 00:09:59;;;;;;;;;;;15.90;90.50;;;;;;4139349;28;19936;-49
2023/10/30 00:12:40;;;;;;;;;;;15.90;90.40;;;;;;4144877;28;19932;-54
2023/10/30 00:15:23;;;;;;;;;;;15.90;90.60;;;;;;4141069;28;19933;-52
2023/10/30 00:18:04;;;;;;;;;;;15.90;90.50;;;;;;4144514;28;19936;-50
2023/10/30 00:20:44;;;;;;;;;;;15.90;90.50;;;;;;4155730;28;20727;-48
2023/10/30 00:23:26;;;;;;;;;;;15.90;90.50;;;;;;4154294;28;20404;-48
2023/10/30 00:26:07;;;;;;;;;;;15.90;90.60;;;;;;4155295;28;19932;-49
2023/10/30 00:28:51;;;;;;;;;;;15.90;90.60;;;;;;4154271;28;20726;-51
2023/10/30 00:31:34;;;;;;;;;;;15.90;90.60;;;;;;4154263;28;20087;-50
2023/10/30 00:34:14;;;;;;;;;;;15.90;90.60;;;;;;4155178;28;19936;-50
2023/10/30 00:36:55;;;;;;;;;;;15.90;90.50;;;;;;4143829;28;20059;-51
2023/10/30 00:39:36;;;;;;;;;;;15.90;90.50;;;;;;4139417;28;20305;-50
2023/10/30 00:42:16;;;;;;;;;;;15.80;90.50;;;;;;4121641;28;19932;-48
2023/10/30 00:44:57;;;;;;;;;;;15.80;90.50;;;;;;4122522;28;19945;-48
2023/10/30 00:47:39;;;;;;;;;;;15.80;90.50;;;;;;4138992;28;19976;-49
2023/10/30 00:50:20;;;;;;;;;;;15.80;90.50;;;;;;4155528;28;19936;-51
2023/10/30 00:53:01;;;;;;;;;;;15.80;90.50;;;;;;4155613;28;20397;-48
2023/10/30 00:55:42;;;;;;;;;;;15.80;90.40;;;;;;4154147;28;19931;-53
2023/10/30 00:58:23;;;;;;;;;;;15.80;90.50;;;;;;4155115;28;19932;-49
2023/10/30 01:01:04;;;;;;;;;;;15.80;90.50;;;;;;4147053;28;19936;-49
2023/10/30 01:03:46;;;;;;;;;;;15.80;90.50;;;;;;4153857;28;19955;-49
2023/10/30 01:06:27;;;;;;;;;;;15.80;90.50;;;;;;4154323;28;20476;-49
2023/10/30 01:09:08;;;;;;;;;;;15.80;90.60;;;;;;4153865;28;20294;-50
2023/10/30 01:11:49;;;;;;;;;;;15.80;90.60;;;;;;4153684;28;19951;-50
2023/10/30 01:14:31;;;;;;;;;;;15.80;90.60;;;;;;4153457;28;20027;-49
2023/10/30 01:17:11;;;;;;;;;;;15.80;90.70;;;;;;4153984;28;19936;-48
2023/10/30 01:19:54;;;;;;;;;;;15.80;90.60;;;;;;4155122;28;19936;-50
2023/10/30 01:22:35;;;;;;;;;;;15.80;90.50;;;;;;4165059;28;19940;-48
2023/10/30 01:25:16;;;;;;;;;;;15.80;90.60;;;;;;4138718;28;19979;-51
2023/10/30 01:27:56;;;;;;;;;;;15.70;90.40;;;;;;4141598;28;19932;-52
2023/10/30 01:30:37;;;;;;;;;;;15.70;90.60;;;;;;4140454;28;19936;-49
2023/10/30 01:33:19;;;;;;;;;;;15.70;90.20;;;;;;4151526;28;19936;-49
2023/10/30 01:36:01;;;;;;;;;;;15.70;90.30;;;;;;4158024;28;20067;-48
2023/10/30 01:38:42;;;;;;;;;;;15.70;90.40;;;;;;4157980;28;19932;-50
2023/10/30 01:41:23;;;;;;;;;;;15.70;90.20;;;;;;4141337;28;19936;-47
2023/10/30 01:44:04;;;;;;;;;;;15.70;90.20;;;;;;4142657;28;19936;-49
2023/10/30 01:46:45;;;;;;;;;;;15.70;90.30;;;;;;4157563;28;19932;-50
2023/10/30 01:49:26;;;;;;;;;;;15.70;90.30;;;;;;4145079;28;19947;-50
2023/10/30 01:52:14;;;;;;;;;;;15.70;90.30;;;;;;4157721;28;19932;-47
2023/10/30 01:54:55;;;;;;;;;;;15.70;90.30;;;;;;4144590;28;19979;-48
2023/10/30 01:57:38;;;;;;;;;;;15.70;90.10;;;;;;4140583;28;19988;-48
2023/10/30 02:00:22;;;;;;;;;;;15.70;90.20;;;;;;4136523;28;20378;-48
2023/10/30 02:03:06;;;;;;;;;;;15.70;90.30;;;;;;4110589;28;20028;-48
2023/10/30 02:05:47;;;;;;;;;;;15.60;90.30;;;;;;4133890;28;19944;-48
2023/10/30 02:08:29;;;;;;;;;;;15.60;90.20;;;;;;4139979;28;20015;-50
2023/10/30 02:11:15;;;;;;;;;;;15.60;90.00;;;;;;4124222;28;19933;-48
2023/10/30 02:13:56;;;;;;;;;;;15.60;90.00;;;;;;4135568;28;20303;-47
2023/10/30 02:16:37;;;;;;;;;;;15.60;90.10;;;;;;4149578;28;20052;-48
2023/10/30 02:19:20;;;;;;;;;;;15.60;90.20;;;;;;4139014;28;19936;-48
2023/10/30 02:22:00;;;;;;;;;;;15.60;90.00;;;;;;4145935;28;19932;-49
2023/10/30 02:24:43;;;;;;;;;;;15.60;90.20;;;;;;4155588;28;19932;-51
2023/10/30 02:27:25;;;;;;;;;;;15.60;90.20;;;;;;4156379;28;19936;-51
2023/10/30 02:30:11;;;;;;;;;;;15.60;90.40;;;;;;4156160;28;20071;-48
2023/10/30 02:32:52;;;;;;;;;;;15.60;90.40;;;;;;4156462;28;19948;-50
2023/10/30 02:35:33;;;;;;;;;;;15.60;90.20;;;;;;4144704;28;19977;-49
2023/10/30 02:38:13;;;;;;;;;;;15.60;90.30;;;;;;4156499;28;19932;-49
2023/10/30 02:40:56;;;;;;;;;;;15.50;90.30;;;;;;4155413;28;20290;-52
2023/10/30 02:43:39;;;;;;;;;;;15.50;90.20;;;;;;4147555;28;19978;-48
2023/10/30 02:46:19;;;;;;;;;;;15.50;90.10;;;;;;4156642;28;20071;-51
2023/10/30 02:49:00;;;;;;;;;;;15.50;90.00;;;;;;4140123;28;19979;-48
2023/10/30 02:51:41;;;;;;;;;;;15.50;90.00;;;;;;4139149;28;19933;-50
2023/10/30 02:54:21;;;;;;;;;;;15.50;90.00;;;;;;4125566;28;19937;-49
2023/10/30 02:57:01;;;;;;;;;;;15.50;90.10;;;;;;4141122;28;19932;-50
2023/10/30 02:59:45;;;;;;;;;;;15.50;90.50;;;;;;4154259;28;19952;-50
2023/10/30 03:02:26;;;;;;;;;;;15.50;90.00;;;;;;4155459;28;20393;-48
2023/10/30 03:05:07;;;;;;;;;;;15.50;90.10;;;;;;4155566;28;19951;-49
2023/10/30 03:07:48;;;;;;;;;;;15.50;90.10;;;;;;4155751;28;20397;-48
2023/10/30 03:10:29;;;;;;;;;;;15.50;90.00;;;;;;4155827;28;20405;-47
2023/10/30 03:13:10;;;;;;;;;;;15.40;90.10;;;;;;4154543;28;20037;-49
2023/10/30 03:15:52;;;;;;;;;;;15.40;90.20;;;;;;4155331;28;20403;-50
2023/10/30 03:18:33;;;;;;;;;;;15.40;90.20;;;;;;4155431;28;19948;-49
2023/10/30 03:21:14;;;;;;;;;;;15.40;90.10;;;;;;4124652;28;19964;-51
2023/10/30 03:23:55;;;;;;;;;;;15.40;90.20;;;;;;4123526;28;19936;-48
2023/10/30 03:26:36;;;;;;;;;;;15.50;90.20;;;;;;4139735;28;20263;-48
2023/10/30 03:29:16;;;;;;;;;;;15.50;90.10;;;;;;4153587;28;19936;-47
2023/10/30 03:31:58;;;;;;;;;;;15.40;90.20;;;;;;4155799;28;19932;-47
2023/10/30 03:34:39;;;;;;;;;;;15.40;90.10;;;;;;4155890;28;19959;-48
2023/10/30 03:37:20;;;;;;;;;;;15.40;90.10;;;;;;4156282;28;19932;-51
2023/10/30 03:40:01;;;;;;;;;;;15.40;90.20;;;;;;4131348;28;19975;-48
2023/10/30 03:42:42;;;;;;;;;;;15.40;90.40;;;;;;4138673;28;20409;-50
2023/10/30 03:45:23;;;;;;;;;;;15.40;90.00;;;;;;4146400;28;19936;-48
2023/10/30 03:48:05;;;;;;;;;;;15.40;90.10;;;;;;4153784;28;19974;-51
2023/10/30 03:50:49;;;;;;;;;;;15.40;90.60;;;;;;4154726;28;19936;-48
2023/10/30 03:53:29;;;;;;;;;;;15.40;90.20;;;;;;4155082;28;20005;-49
2023/10/30 03:56:10;;;;;;;;;;;15.40;90.20;;;;;;4140234;28;19933;-48
2023/10/30 03:58:50;;;;;;;;;;;15.40;90.60;;;;;;4153918;28;19936;-48
2023/10/30 04:01:31;;;;;;;;;;;15.30;90.10;;;;;;4139614;28;19933;-47
2023/10/30 04:04:13;;;;;;;;;;;15.30;90.00;;;;;;4150518;28;19936;-48
2023/10/30 04:06:54;;;;;;;;;;;15.40;90.10;;;;;;4154417;28;19990;-50
2023/10/30 04:09:35;;;;;;;;;;;15.40;90.20;;;;;;4135034;28;19944;-48
2023/10/30 04:12:15;;;;;;;;;;;15.30;90.20;;;;;;4134534;28;19933;-50
2023/10/30 04:14:56;;;;;;;;;;;15.30;90.30;;;;;;4133086;28;19998;-48
2023/10/30 04:17:37;;;;;;;;;;;15.40;90.30;;;;;;4137562;28;19944;-47
2023/10/30 04:20:19;;;;;;;;;;;15.30;90.30;;;;;;4155519;28;20405;-48
2023/10/30 04:23:00;;;;;;;;;;;15.30;90.30;;;;;;4154607;28;19936;-51
2023/10/30 04:25:41;;;;;;;;;;;15.30;90.10;;;;;;4154974;28;19932;-52
2023/10/30 04:28:21;;;;;;;;;;;15.30;90.20;;;;;;4151612;28;19979;-49
2023/10/30 04:31:02;;;;;;;;;;;15.30;90.20;;;;;;4154535;28;20034;-51
2023/10/30 04:33:42;;;;;;;;;;;15.30;90.20;;;;;;4154765;28;19932;-49
2023/10/30 04:36:25;;;;;;;;;;;15.30;90.20;;;;;;4154960;28;19935;-51
2023/10/30 04:39:08;;;;;;;;;;;15.30;90.10;;;;;;4138720;28;20394;-48
2023/10/30 04:41:50;;;;;;;;;;;15.30;90.20;;;;;;4138633;28;20726;-48
2023/10/30 04:44:31;;;;;;;;;;;15.30;90.30;;;;;;4138777;28;19979;-48
2023/10/30 04:47:11;;;;;;;;;;;15.30;90.30;;;;;;4144913;28;20468;-49
2023/10/30 04:49:52;;;;;;;;;;;15.30;90.50;;;;;;4153586;28;19936;-49
2023/10/30 04:52:34;;;;;;;;;;;15.40;90.50;;;;;;4139541;28;19999;-47
2023/10/30 04:55:15;;;;;;;;;;;15.40;90.40;;;;;;4154694;28;19936;-50
2023/10/30 04:57:56;;;;;;;;;;;15.40;90.80;;;;;;4154477;28;19931;-48
2023/10/30 05:00:36;;;;;;;;;;;15.40;90.30;;;;;;4138515;28;19936;-48
2023/10/30 05:03:17;;;;;;;;;;;15.50;90.30;;;;;;4137885;28;19936;-49
2023/10/30 05:06:01;;;;;;;;;;;15.50;90.20;;;;;;4137726;28;20393;-49
2023/10/30 05:08:44;;;;;;;;;;;15.50;90.50;;;;;;4136764;28;19937;-52
2023/10/30 05:11:25;;;;;;;;;;;15.60;89.80;;;;;;4151572;28;19933;-51
2023/10/30 05:14:06;;;;;;;;;;;15.60;89.90;;;;;;4154706;28;20015;-49
2023/10/30 05:16:47;;;;;;;;;;;15.60;89.80;;;;;;4153872;28;19940;-49
2023/10/30 05:19:27;;;;;;;;;;;15.60;89.90;;;;;;4154117;28;20290;-48
2023/10/30 05:22:08;;;;;;;;;;;15.60;90.40;;;;;;4154095;28;19936;-51
2023/10/30 05:24:51;;;;;;;;;;;15.60;90.00;;;;;;4150319;28;20075;-51
2023/10/30 05:27:31;;;;;;;;;;;15.60;90.00;;;;;;4150725;28;19936;-50
2023/10/30 05:30:12;;;;;;;;;;;15.50;89.50;;;;;;4151382;28;19979;-53
2023/10/30 05:32:53;;;;;;;;;;;15.50;89.80;;;;;;4150549;28;20575;-48
2023/10/30 05:35:34;;;;;;;;;;;15.50;90.00;;;;;;4151475;28;19943;-48
2023/10/30 05:38:15;;;;;;;;;;;15.60;90.00;;;;;;4150755;28;19959;-48
2023/10/30 05:40:58;;;;;;;;;;;15.60;90.00;;;;;;4151972;28;19968;-48
2023/10/30 05:43:38;;;;;;;;;;;15.60;90.00;;;;;;4154221;28;19932;-49
2023/10/30 05:46:19;;;;;;;;;;;15.60;90.10;;;;;;4153982;28;20392;-52
2023/10/30 05:48:59;;;;;;;;;;;15.60;90.00;;;;;;4153686;28;19932;-48
2023/10/30 05:51:40;;;;;;;;;;;15.70;89.90;;;;;;4153792;28;19936;-47
2023/10/30 05:54:21;;;;;;;;;;;15.70;89.80;;;;;;4153832;28;19932;-49
2023/10/30 05:57:03;;;;;;;;;;;15.70;90.20;;;;;;4153587;28;19932;-49
2023/10/30 05:59:44;;;;;;;;;;;15.80;90.00;;;;;;4154091;28;19975;-47
2023/10/30 06:02:25;;;;;;;;;;;15.80;90.00;;;;;;4143551;28;19932;-50
2023/10/30 06:05:08;;;;;;;;;;;15.90;90.00;;;;;;4153368;28;20324;-49
2023/10/30 06:07:49;;;;;;;;;;;15.90;89.80;;;;;;4152728;28;19932;-50
2023/10/30 06:10:29;;;;;;;;;;;15.90;89.50;;;;;;4137222;28;20278;-50
2023/10/30 06:13:11;;;;;;;;;;;15.90;90.10;;;;;;4153541;28;19935;-49
2023/10/30 06:15:54;;;;;;;;;;;15.90;89.40;;;;;;4155119;28;19948;-50
2023/10/30 06:18:35;;;;;;;;;;;15.90;89.60;;;;;;4156991;28;19936;-49
2023/10/30 06:21:16;;;;;;;;;;;15.80;90.00;;;;;;4147026;28;19970;-49
2023/10/30 06:23:56;;;;;;;;;;;15.80;89.20;;;;;;4156460;28;19936;-49
2023/10/30 06:26:39;;;;;;;;;;;15.80;89.20;;;;;;4139025;28;20502;-51
2023/10/30 06:29:21;;;;;;;;;;;15.70;90.00;;;;;;4155100;28;19932;-51
2023/10/30 06:32:02;;;;;;;;;;;15.70;89.20;;;;;;4156110;28;19931;-48
2023/10/30 06:34:43;;;;;;;;;;;15.70;89.30;;;;;;4139344;28;19932;-53
2023/10/30 06:37:24;;;;;;;;;;;15.60;89.50;;;;;;4140187;28;19971;-51
2023/10/30 06:40:05;;;;;;;;;;;15.60;89.30;;;;;;4139589;28;19940;-47
2023/10/30 06:42:47;;;;;;;;;;;15.60;89.60;;;;;;4123910;28;19940;-50
2023/10/30 06:45:30;;;;;;;;;;;15.60;90.00;;;;;;4130155;28;19979;-50
2023/10/30 06:48:14;;;;;;;;;;;15.60;90.00;;;;;;4154775;28;20729;-52
2023/10/30 06:50:55;;;;;;;;;;;15.70;90.00;;;;;;4139739;28;19979;-51
2023/10/30 06:53:36;;;;;;;;;;;15.70;89.60;;;;;;4139996;28;20070;-48
2023/10/30 06:56:17;;;;;;;;;;;15.80;89.40;;;;;;4153545;28;20281;-48
2023/10/30 06:58:57;;;;;;;;;;;15.80;89.30;;;;;;4155854;28;19936;-49
2023/10/30 07:01:43;;;;;;;;;;;15.80;89.00;;;;;;4155658;28;19932;-48
2023/10/30 07:04:24;;;;;;;;;;;15.80;88.60;;;;;;4153576;28;19936;-49
2023/10/30 07:07:05;;;;;;;;;;;15.90;88.90;;;;;;4155016;28;19936;-47
2023/10/30 07:09:46;;;;;;;;;;;15.90;88.70;;;;;;4149041;28;19931;-47
2023/10/30 07:12:27;;;;;;;;;;;15.90;88.60;;;;;;4153334;28;20305;-48
2023/10/30 07:15:08;;;;;;;;;;;16.00;88.40;;;;;;4154846;28;20392;-51
2023/10/30 07:17:51;;;;;;;;;;;16.00;88.40;;;;;;4155465;28;20432;-51
2023/10/30 07:20:32;;;;;;;;;;;16.00;88.20;;;;;;4166351;28;19933;-50
2023/10/30 07:23:13;;;;;;;;;;;16.00;89.50;;;;;;4155579;28;19932;-50
2023/10/30 07:25:54;;;;;;;;;;;16.10;88.90;;;;;;4155972;28;19936;-48
2023/10/30 07:28:34;;;;;;;;;;;16.10;88.60;;;;;;4154846;28;19947;-50
2023/10/30 07:31:17;;;;;;;;;;;16.20;88.00;;;;;;4154414;28;19983;-51
2023/10/30 07:33:59;;;;;;;;;;;16.10;87.50;;;;;;4153667;28;19936;-52
2023/10/30 07:36:40;;;;;;;;;;;16.20;87.20;;;;;;4155675;28;19940;-51
2023/10/30 07:39:21;;;;;;;;;;;16.20;87.40;;;;;;4147741;28;19936;-54
2023/10/30 07:42:02;;;;;;;;;;;16.20;87.60;;;;;;4151093;28;19940;-53
2023/10/30 07:44:42;;;;;;;;;;;16.10;87.40;;;;;;4138710;28;19978;-54
2023/10/30 07:47:23;;;;;;;;;;;16.10;87.40;;;;;;4129226;28;19933;-51
2023/10/30 07:50:18;;;;;;;;;;;16.10;87.30;;;;;;4139565;28;20597;-55
2023/10/30 07:52:59;;;;;;;;;;;16.10;88.20;;;;;;4140394;28;20076;-55
2023/10/30 07:55:41;;;;;;;;;;;16.00;87.30;;;;;;4153672;28;19936;-52
2023/10/30 07:58:22;;;;;;;;;;;16.00;87.50;;;;;;4138602;28;20386;-52
2023/10/30 08:01:03;;;;;;;;;;;16.00;88.40;;;;;;4136066;28;19937;-53
2023/10/30 08:03:44;;;;;;;;;;;15.90;87.50;;;;;;4145792;28;19932;-51
2023/10/30 08:06:26;;;;;;;;;;;15.90;87.60;;;;;;4146681;28;20305;-53
2023/10/30 08:09:08;;;;;;;;;;;15.90;87.70;;;;;;4153137;28;19982;-51
2023/10/30 08:11:49;;;;;;;;;;;15.90;87.70;;;;;;4164438;28;19936;-54
2023/10/30 08:14:30;;;;;;;;;;;15.80;87.70;;;;;;4170988;28;19994;-53
2023/10/30 08:17:11;;;;;;;;;;;15.80;87.80;;;;;;4160823;28;19968;-56
2023/10/30 08:19:51;;;;;;;;;;;15.80;87.90;;;;;;4143380;28;20011;-55
2023/10/30 08:22:33;;;;;;;;;;;15.80;88.00;;;;;;4138816;28;19932;-53
2023/10/30 08:25:14;;;;;;;;;;;15.70;88.10;;;;;;4138159;28;20302;-57
2023/10/30 08:27:56;;;;;;;;;;;15.70;88.20;;;;;;4138022;28;19933;-54
2023/10/30 08:30:37;;;;;;;;;;;15.70;88.30;;;;;;4136161;28;19952;-56
2023/10/30 08:33:18;;;;;;;;;;;15.70;88.40;;;;;;4138393;28;19986;-54
2023/10/30 08:35:59;;;;;;;;;;;15.60;88.40;;;;;;4153126;28;19932;-54
2023/10/30 08:38:41;;;;;;;;;;;15.60;88.50;;;;;;4154543;28;20484;-52
2023/10/30 08:41:23;;;;;;;;;;;15.60;89.50;;;;;;4154991;28;20022;-54
2023/10/30 08:44:05;;;;;;;;;;;15.60;88.70;;;;;;4154350;28;19936;-56
2023/10/30 08:46:46;;;;;;;;;;;15.60;88.80;;;;;;4154586;28;19932;-55
2023/10/30 08:49:27;;;;;;;;;;;15.60;88.90;;;;;;4136965;28;19936;-55
2023/10/30 08:52:09;;;;;;;;;;;15.60;89.00;;;;;;4137245;28;19952;-51
2023/10/30 08:54:51;;;;;;;;;;;15.60;89.00;;;;;;4141104;28;20062;-54
2023/10/30 08:57:32;;;;;;;;;;;15.60;89.10;;;;;;4147757;28;19959;-52
2023/10/30 09:00:13;;;;;;;;;;;15.50;89.00;;;;;;4154060;28;19936;-53
2023/10/30 09:02:54;;;;;;;;;;;15.50;89.20;;;;;;4154592;28;19937;-51
2023/10/30 09:05:35;;;;;;;;;;;15.60;89.30;;;;;;4154963;28;19932;-53
2023/10/30 09:08:16;;;;;;;;;;;15.50;89.30;;;;;;4138922;28;19932;-54
2023/10/30 09:10:58;;;;;;;;;;;15.50;89.40;;;;;;4137726;28;20485;-54
2023/10/30 09:13:39;;;;;;;;;;;15.50;89.50;;;;;;4154399;28;20400;-54
2023/10/30 09:16:20;;;;;;;;;;;15.50;89.60;;;;;;4147825;28;20302;-55
2023/10/30 09:19:00;;;;;;;;;;;15.50;89.60;;;;;;4138336;28;20056;-52
2023/10/30 09:21:41;;;;;;;;;;;15.50;89.70;;;;;;4146084;28;19933;-54
2023/10/30 09:24:22;;;;;;;;;;;15.50;89.80;;;;;;4154170;28;19936;-51
2023/10/30 09:27:04;;;;;;;;;;;15.50;89.90;;;;;;4153688;28;20459;-55
2023/10/30 09:29:45;;;;;;;;;;;15.50;90.00;;;;;;4137779;28;20348;-51
2023/10/30 09:32:26;;;;;;;;;;;15.50;90.00;;;;;;4138163;28;19983;-54
2023/10/30 09:35:07;;;;;;;;;;;15.50;90.00;;;;;;4147999;28;19933;-54
2023/10/30 09:37:48;;;;;;;;;;;15.50;90.00;;;;;;4154318;28;19940;-54
2023/10/30 09:40:29;;;;;;;;;;;15.50;90.00;;;;;;4154110;28;19938;-55
2023/10/30 09:43:11;;;;;;;;;;;15.50;90.00;;;;;;4137370;28;20048;-52
2023/10/30 09:45:54;;;;;;;;;;;15.50;90.00;;;;;;4154249;28;19931;-55
2023/10/30 09:48:37;;;;;;;;;;;15.50;90.00;;;;;;4155542;28;20489;-53
2023/10/30 09:51:18;;;;;;;;;;;15.50;90.00;;;;;;4155389;28;19932;-56
2023/10/30 09:53:59;;;;;;;;;;;15.50;90.00;;;;;;4156630;28;19936;-55
2023/10/30 09:56:41;;;;;;;;;;;15.50;90.00;;;;;;4156961;28;19936;-55
2023/10/30 09:59:23;;;;;;;;;;;15.50;90.00;;;;;;4151971;28;20056;-55
2023/10/30 10:02:04;;;;;;;;;;;15.50;90.40;;;;;;4155238;28;19932;-52
2023/10/30 10:04:45;;;;;;;;;;;15.50;90.00;;;;;;4140791;28;19979;-53
2023/10/30 10:07:26;;;;;;;;;;;15.50;90.00;;;;;;4140787;28;19936;-56
2023/10/30 10:10:08;;;;;;;;;;;15.50;90.10;;;;;;4140698;28;19933;-52
2023/10/30 10:12:52;;;;;;;;;;;15.50;90.10;;;;;;4144946;28;19952;-54
2023/10/30 10:15:34;;;;;;;;;;;15.50;90.10;;;;;;4157208;28;19936;-52
2023/10/30 10:18:23;;;;;;;;;;;15.60;90.10;;;;;;4156567;28;19932;-55
2023/10/30 10:21:08;;;;;;;;;;;15.50;90.10;;;;;;4149316;28;20282;-45
2023/10/30 10:23:49;;;;;;;;;;;15.50;90.30;;;;;;4156286;28;19933;-48
2023/10/30 10:26:30;;;;;;;;;;;15.60;91.00;;;;;;4156883;28;19932;-50
2023/10/30 10:29:11;;;;;;;;;;;15.60;90.80;;;;;;4139371;28;20461;-49
2023/10/30 10:31:53;;;;;;;;;;;15.70;90.80;;;;;;4155988;28;20143;-49
2023/10/30 10:34:34;;;;;;;;;;;15.70;90.60;;;;;;4155977;28;19978;-47
2023/10/30 10:37:18;;;;;;;;;;;15.70;90.90;;;;;;4136794;28;20068;-48
2023/10/30 10:40:00;;;;;;;;;;;15.70;90.50;;;;;;4139089;28;19932;-48
2023/10/30 10:42:41;;;;;;;;;;;15.70;90.40;;;;;;4138941;28;19936;-48
2023/10/30 10:45:22;;;;;;;;;;;15.70;90.30;;;;;;4143373;28;19931;-47
2023/10/30 10:48:05;;;;;;;;;;;15.70;90.30;;;;;;4155092;28;20396;-48
2023/10/30 10:50:47;;;;;;;;;;;15.70;90.30;;;;;;4155232;28;20083;-51
2023/10/30 10:53:29;;;;;;;;;;;15.70;90.30;;;;;;4156634;28;19932;-50
2023/10/30 10:56:11;;;;;;;;;;;15.70;90.50;;;;;;4156317;28;19932;-54
2023/10/30 10:58:58;;;;;;;;;;;15.70;90.40;;;;;;4156061;28;19967;-53
2023/10/30 11:01:42;;;;;;;;;;;15.70;90.40;;;;;;4156222;28;19983;-52
2023/10/30 11:04:25;;;;;;;;;;;15.70;90.40;;;;;;4156370;28;19936;-55
2023/10/30 11:07:07;;;;;;;;;;;15.70;90.40;;;;;;4155415;28;20019;-53
2023/10/30 11:09:50;;;;;;;;;;;15.70;90.40;;;;;;4154588;28;19936;-51
2023/10/30 11:12:37;;;;;;;;;;;15.70;90.40;;;;;;4155780;28;19932;-50
2023/10/30 11:15:20;;;;;;;;;;;15.80;90.40;;;;;;4151416;28;19972;-51
2023/10/30 11:18:13;;;;;;;;;;;15.70;90.40;;;;;;4155389;28;20108;-53
2023/10/30 11:21:11;;;;;;;;;;;15.70;90.50;;;;;;4154237;28;20656;-52
2023/10/30 11:23:56;;;;;;;;;;;15.70;90.50;;;;;;4155219;28;20028;-51
2023/10/30 11:26:40;;;;;;;;;;;15.70;90.50;;;;;;4155672;28;19940;-52
2023/10/30 11:29:23;;;;;;;;;;;15.70;90.50;;;;;;4155334;28;19979;-54
2023/10/30 11:32:05;;;;;;;;;;;15.80;90.50;;;;;;4142304;28;20044;-50
2023/10/30 11:34:46;;;;;;;;;;;15.80;90.60;;;;;;4144199;28;20719;-51
2023/10/30 11:37:32;;;;;;;;;;;15.80;90.60;;;;;;4155376;28;20389;-55
2023/10/30 11:40:15;;;;;;;;;;;15.80;90.60;;;;;;4124797;28;19933;-53
2023/10/30 11:42:56;;;;;;;;;;;15.80;90.70;;;;;;4129245;28;19994;-51
2023/10/30 11:45:40;;;;;;;;;;;15.90;90.70;;;;;;4133338;28;20019;-52
2023/10/30 11:48:26;;;;;;;;;;;15.90;90.60;;;;;;4128091;28;19932;-51
2023/10/30 11:51:08;;;;;;;;;;;15.90;90.60;;;;;;4147445;28;19932;-51
2023/10/30 11:53:51;;;;;;;;;;;15.90;90.60;;;;;;4155682;28;19936;-51
2023/10/30 11:56:32;;;;;;;;;;;15.90;90.60;;;;;;4155386;28;19983;-55
2023/10/30 11:59:13;;;;;;;;;;;16.00;90.60;;;;;;4154044;28;19932;-55
2023/10/30 12:01:54;;;;;;;;;;;16.00;90.60;;;;;;4154793;28;19936;-54
2023/10/30 12:04:35;;;;;;;;;;;16.00;90.60;;;;;;4149017;28;19936;-54
2023/10/30 12:07:16;;;;;;;;;;;16.00;90.60;;;;;;4141332;28;20393;-55
2023/10/30 12:09:59;;;;;;;;;;;16.00;90.60;;;;;;4154496;28;20409;-55
2023/10/30 12:12:41;;;;;;;;;;;16.00;90.60;;;;;;4123586;28;19933;-55
2023/10/30 12:15:21;;;;;;;;;;;16.00;90.60;;;;;;4122660;28;19933;-52
2023/10/30 12:18:03;;;;;;;;;;;16.00;90.50;;;;;;4143350;28;20293;-50
2023/10/30 12:20:44;;;;;;;;;;;16.00;90.50;;;;;;4144048;28;20013;-51
2023/10/30 12:23:24;;;;;;;;;;;16.00;90.50;;;;;;4152712;28;19940;-51
2023/10/30 12:26:07;;;;;;;;;;;16.00;90.60;;;;;;4155001;28;19932;-50
2023/10/30 12:28:48;;;;;;;;;;;16.00;90.80;;;;;;4155062;28;19940;-55
2023/10/30 12:31:29;;;;;;;;;;;16.10;90.90;;;;;;4154951;28;19932;-49
2023/10/30 12:34:11;;;;;;;;;;;16.10;91.10;;;;;;4154593;28;20063;-47
2023/10/30 12:36:52;;;;;;;;;;;16.10;90.90;;;;;;4139593;28;19970;-46
2023/10/30 12:39:33;;;;;;;;;;;16.20;90.80;;;;;;4132715;28;19952;-47
2023/10/30 12:42:16;;;;;;;;;;;16.10;90.70;;;;;;4140923;28;20448;-48
2023/10/30 12:44:57;;;;;;;;;;;16.10;90.60;;;;;;4136864;28;19937;-49
2023/10/30 12:47:38;;;;;;;;;;;16.10;90.60;;;;;;4151139;28;20018;-47
2023/10/30 12:50:19;;;;;;;;;;;16.10;91.00;;;;;;4154844;28;19982;-48
2023/10/30 12:53:00;;;;;;;;;;;16.10;90.70;;;;;;4144173;28;20274;-49
2023/10/30 12:55:41;;;;;;;;;;;16.10;90.60;;;;;;4139420;28;19944;-47
2023/10/30 12:58:23;;;;;;;;;;;16.10;90.60;;;;;;4152959;28;19936;-47
2023/10/30 13:01:06;;;;;;;;;;;16.10;90.60;;;;;;4137997;28;19979;-50
2023/10/30 13:03:50;;;;;;;;;;;16.10;90.70;;;;;;4139671;28;19975;-48
2023/10/30 13:06:31;;;;;;;;;;;16.00;90.80;;;;;;4153634;28;19932;-51
2023/10/30 13:09:12;;;;;;;;;;;16.10;91.10;;;;;;4149855;28;19951;-47
2023/10/30 13:11:53;;;;;;;;;;;16.10;91.20;;;;;;4153785;28;19931;-48
2023/10/30 13:14:35;;;;;;;;;;;16.10;91.30;;;;;;4134910;28;19932;-49
2023/10/30 13:17:16;;;;;;;;;;;16.20;91.40;;;;;;4137642;28;20075;-51
2023/10/30 13:19:56;;;;;;;;;;;16.20;91.40;;;;;;4139165;28;19932;-55
2023/10/30 13:22:37;;;;;;;;;;;16.20;91.50;;;;;;4139634;28;20027;-54
2023/10/30 13:25:20;;;;;;;;;;;16.20;91.40;;;;;;4155154;28;19932;-51
2023/10/30 13:28:01;;;;;;;;;;;16.20;91.30;;;;;;4157644;28;20010;-53
2023/10/30 13:30:43;;;;;;;;;;;16.20;91.30;;;;;;4157346;28;19978;-50
2023/10/30 13:33:24;;;;;;;;;;;16.20;91.40;;;;;;4157245;28;20122;-47
2023/10/30 13:36:05;;;;;;;;;;;16.20;91.50;;;;;;4150943;28;19936;-50
2023/10/30 13:38:46;;;;;;;;;;;16.30;91.50;;;;;;4156469;28;19936;-49
2023/10/30 13:41:26;;;;;;;;;;;16.30;91.50;;;;;;4156890;28;20502;-49
2023/10/30 13:44:07;;;;;;;;;;;16.30;91.40;;;;;;4142586;28;19936;-47
2023/10/30 13:46:49;;;;;;;;;;;16.20;91.30;;;;;;4141459;28;20511;-49
2023/10/30 13:49:31;;;;;;;;;;;16.20;91.20;;;;;;4141144;28;19936;-50
2023/10/30 13:52:13;;;;;;;;;;;16.20;91.20;;;;;;4141674;28;19935;-49
2023/10/30 13:54:54;;;;;;;;;;;16.20;91.20;;;;;;4126160;28;20011;-49
2023/10/30 13:57:34;;;;;;;;;;;16.20;91.20;;;;;;4150396;28;19944;-49
2023/10/30 14:00:15;;;;;;;;;;;16.20;91.20;;;;;;4156901;28;19936;-47
2023/10/30 14:02:57;;;;;;;;;;;16.20;91.50;;;;;;4156663;28;19940;-48
2023/10/30 14:05:38;;;;;;;;;;;16.20;91.10;;;;;;4150313;28;19964;-50
2023/10/30 14:08:18;;;;;;;;;;;16.20;91.10;;;;;;4133859;28;19937;-49
2023/10/30 14:10:59;;;;;;;;;;;16.10;91.10;;;;;;4137265;28;19933;-49
2023/10/30 14:13:40;;;;;;;;;;;16.10;91.10;;;;;;4147601;28;20001;-49
2023/10/30 14:16:20;;;;;;;;;;;16.10;91.10;;;;;;4155489;28;19987;-48
2023/10/30 14:19:03;;;;;;;;;;;16.10;91.10;;;;;;4157138;28;19932;-51
2023/10/30 14:21:45;;;;;;;;;;;16.10;91.10;;;;;;4157028;28;19979;-53
2023/10/30 14:24:25;;;;;;;;;;;16.10;91.10;;;;;;4154019;28;19936;-52
2023/10/30 14:27:07;;;;;;;;;;;16.10;91.10;;;;;;4156469;28;19935;-55
2023/10/30 14:29:48;;;;;;;;;;;16.10;91.50;;;;;;4155863;28;20039;-50
2023/10/30 14:32:28;;;;;;;;;;;16.10;91.10;;;;;;4156364;28;20054;-51
2023/10/30 14:35:10;;;;;;;;;;;16.10;91.10;;;;;;4156002;28;19986;-54
2023/10/30 14:37:51;;;;;;;;;;;16.10;91.10;;;;;;4155995;28;19936;-54
2023/10/30 14:40:31;;;;;;;;;;;16.10;91.10;;;;;;4156035;28;19932;-54
2023/10/30 14:43:12;;;;;;;;;;;16.00;91.10;;;;;;4155778;28;20289;-51
2023/10/30 14:45:52;;;;;;;;;;;16.10;91.20;;;;;;4146544;28;19952;-51
2023/10/30 14:48:34;;;;;;;;;;;16.10;91.10;;;;;;4154792;28;19936;-54
2023/10/30 14:51:16;;;;;;;;;;;16.10;91.10;;;;;;4142065;28;20393;-54
2023/10/30 14:53:59;;;;;;;;;;;16.00;91.10;;;;;;4153747;28;19936;-53
2023/10/30 14:56:40;;;;;;;;;;;16.00;91.10;;;;;;4155849;28;19932;-55
2023/10/30 14:59:20;;;;;;;;;;;16.00;91.20;;;;;;4138838;28;19979;-53
2023/10/30 15:02:01;;;;;;;;;;;16.10;91.30;;;;;;4138999;28;20026;-51
2023/10/30 15:04:42;;;;;;;;;;;16.10;91.40;;;;;;4154153;28;19936;-48
2023/10/30 15:07:24;;;;;;;;;;;16.10;91.40;;;;;;4154941;28;19936;-49
2023/10/30 15:10:05;;;;;;;;;;;16.10;91.40;;;;;;4154625;28;20401;-53
2023/10/30 15:12:46;;;;;;;;;;;16.10;91.40;;;;;;4154931;28;19986;-49
2023/10/30 15:15:27;;;;;;;;;;;16.10;91.40;;;;;;4152742;28;19963;-50
2023/10/30 15:18:08;;;;;;;;;;;16.10;91.40;;;;;;4140412;28;20007;-48
2023/10/30 15:20:49;;;;;;;;;;;16.10;91.40;;;;;;4138098;28;19952;-50
2023/10/30 15:23:31;;;;;;;;;;;16.10;91.40;;;;;;4151618;28;19932;-54
2023/10/30 15:26:11;;;;;;;;;;;16.10;91.40;;;;;;4154825;28;20448;-49
2023/10/30 15:28:52;;;;;;;;;;;16.10;91.80;;;;;;4138689;28;20031;-55
2023/10/30 15:31:33;;;;;;;;;;;16.00;91.40;;;;;;4138622;28;20394;-52
2023/10/30 15:34:13;;;;;;;;;;;16.10;91.50;;;;;;4154396;28;20642;-52
2023/10/30 15:36:54;;;;;;;;;;;16.00;91.50;;;;;;4152070;28;20381;-54
2023/10/30 15:39:15;;;;;;;;;;;16.00;91.90;;;;;;4202594;27;19920;-52